LGSA/CHQ METAR and TAF weather

Enter ICAO airport designator
Station Type Date Time Source
LGSA METAR 2019/04/22 18:20 UTC NOAA

LGSA 221820Z 13007KT 9999 FEW025 SCT100 13/08 Q1019


Station Type Date Time Source
LGSA Decoded METAR 2019/04/22 18:20 UTC NOAA

Souda Airport , Greece (LGSA) 35-29N 024-07E 151M
Apr 22, 2019 - 02:20 PM EDT / 2019.04.22 1820 UTC
Wind: from the SE (130 degrees) at 8 MPH (7 KT):0
Visibility: greater than 7 mile(s):0
Sky conditions: partly cloudy
Temperature: 55 F (13 C)
Dew Point: 46 F (8 C)
Relative Humidity: 71%
Pressure (altimeter): 30.09 in. Hg (1019 hPa)
ob: LGSA 221820Z 13007KT 9999 FEW025 SCT100 13/08 Q1019
cycle: 18

Station Type Date Time Source
LGSA TAF 2019/04/22 18:16 UTC NOAA

TAF LGSA 221700Z 2218/2318 11010KT 9999 FEW025 SCT100
TEMPO 2306/2312 12010G22KT BKN100

Example: see airport list